Time;durP1;ratioP1;P1;durP2;ratioP2;P2;SDS_P1;SDS_P2;PMS_P1;PMS_P2;Temp;Humidity;BMP_temperature;BMP_pressure;BME280_temperature;BME280_humidity;BME280_pressure;Samples;Min_cycle;Max_cycle;Signal;HPM_P1;HPM_P2
2023/06/27 00:01:42;;;;;;;4.47;2.10;;;;;;;;;;5026663;28;20041;-70
2023/06/27 00:04:28;;;;;;;4.43;1.88;;;;;;;;;;5030367;28;20029;-69
2023/06/27 00:07:16;;;;;;;6.30;2.05;;;;;;;;;;5018084;28;20412;-70
2023/06/27 00:10:02;;;;;;;3.92;1.80;;;;;;;;;;5029565;28;20116;-74
2023/06/27 00:12:47;;;;;;;3.80;1.65;;;;;;;;;;5002905;28;20133;-70
2023/06/27 00:15:34;;;;;;;5.88;2.03;;;;;;;;;;5001499;28;20025;-69
2023/06/27 00:18:21;;;;;;;5.95;1.90;;;;;;;;;;5029114;28;20057;-70
2023/06/27 00:21:06;;;;;;;2.80;1.60;;;;;;;;;;5013770;28;20087;-70
2023/06/27 00:23:55;;;;;;;2.90;1.60;;;;;;;;;;5004875;28;20039;-69
2023/06/27 00:26:41;;;;;;;5.13;2.83;;;;;;;;;;5028550;28;20154;-68
2023/06/27 00:29:27;;;;;;;3.85;2.10;;;;;;;;;;5018112;28;20430;-70
2023/06/27 00:32:12;;;;;;;3.95;1.75;;;;;;;;;;5017705;28;20075;-75
2023/06/27 00:34:57;;;;;;;8.38;2.20;;;;;;;;;;5011915;28;20021;-74
2023/06/27 00:37:42;;;;;;;2.88;1.63;;;;;;;;;;5016787;28;20074;-75
2023/06/27 00:40:27;;;;;;;4.68;1.80;;;;;;;;;;5008757;28;20061;-74
2023/06/27 00:43:13;;;;;;;2.97;1.98;;;;;;;;;;5002480;28;20029;-75
2023/06/27 00:45:58;;;;;;;5.20;2.08;;;;;;;;;;5026745;28;20442;-77
2023/06/27 00:48:44;;;;;;;4.20;1.70;;;;;;;;;;5016445;28;20029;-71
2023/06/27 00:51:29;;;;;;;6.35;2.00;;;;;;;;;;5028015;28;20083;-76
2023/06/27 00:54:16;;;;;;;7.43;2.15;;;;;;;;;;5027802;28;20033;-77
2023/06/27 00:57:02;;;;;;;5.47;2.45;;;;;;;;;;5026582;28;20025;-76
2023/06/27 00:59:48;;;;;;;4.38;2.45;;;;;;;;;;5025614;28;20112;-75
2023/06/27 01:02:33;;;;;;;3.58;1.95;;;;;;;;;;5009876;28;20034;-76
2023/06/27 01:05:19;;;;;;;4.55;1.73;;;;;;;;;;5000656;28;20037;-70
2023/06/27 01:08:18;;;;;;;4.05;2.15;;;;;;;;;;5029241;28;20053;-77
2023/06/27 01:11:05;;;;;;;4.78;1.80;;;;;;;;;;4996381;28;20034;-74
2023/06/27 01:13:54;;;;;;;2.70;1.88;;;;;;;;;;5013106;28;20033;-74
2023/06/27 01:16:40;;;;;;;2.78;1.75;;;;;;;;;;5031746;28;20032;-75
2023/06/27 01:19:29;;;;;;;5.68;2.33;;;;;;;;;;5024661;28;20454;-74
2023/06/27 01:22:14;;;;;;;;;;;;;;;;;;5028893;28;20049;-75
2023/06/27 01:25:00;;;;;;;4.32;1.88;;;;;;;;;;5025055;28;20008;-71
2023/06/27 01:27:45;;;;;;;11.10;2.58;;;;;;;;;;5014387;28;20041;-71
2023/06/27 01:30:33;;;;;;;4.18;2.08;;;;;;;;;;5018367;28;20474;-72
2023/06/27 01:33:21;;;;;;;5.50;2.67;;;;;;;;;;5017030;28;20045;-70
2023/06/27 01:36:09;;;;;;;5.85;1.83;;;;;;;;;;5012667;28;20415;-68
2023/06/27 01:39:15;;;;;;;4.07;1.90;;;;;;;;;;5016153;28;20653;-70
2023/06/27 01:42:04;;;;;;;3.40;1.65;;;;;;;;;;5013374;28;20033;-70
2023/06/27 01:44:50;;;;;;;4.82;1.70;;;;;;;;;;5028035;28;20029;-71
2023/06/27 01:47:37;;;;;;;4.13;1.50;;;;;;;;;;5026071;28;20037;-69
2023/06/27 01:50:22;;;;;;;5.88;2.22;;;;;;;;;;5015621;28;20029;-71
2023/06/27 01:53:07;;;;;;;6.15;1.70;;;;;;;;;;5016342;28;20136;-70
2023/06/27 01:55:52;;;;;;;4.20;1.40;;;;;;;;;;5012090;28;20108;-72
2023/06/27 01:58:38;;;;;;;2.72;1.67;;;;;;;;;;5028997;28;20167;-71
2023/06/27 02:01:23;;;;;;;4.43;2.00;;;;;;;;;;5027511;28;20039;-75
2023/06/27 02:04:08;;;;;;;4.35;1.88;;;;;;;;;;5013702;28;20025;-71
2023/06/27 02:06:54;;;;;;;5.75;1.85;;;;;;;;;;4996423;28;20040;-70
2023/06/27 02:09:39;;;;;;;4.13;1.90;;;;;;;;;;5007722;28;20067;-69
2023/06/27 02:12:24;;;;;;;4.55;1.90;;;;;;;;;;5026763;28;20056;-70
2023/06/27 02:15:10;;;;;;;5.70;2.95;;;;;;;;;;5028098;28;20503;-70
2023/06/27 02:17:56;;;;;;;5.20;1.70;;;;;;;;;;5018609;28;20541;-69
2023/06/27 02:20:41;;;;;;;6.07;2.05;;;;;;;;;;5001774;28;20449;-75
2023/06/27 02:23:26;;;;;;;4.88;1.80;;;;;;;;;;5000753;28;20037;-75
2023/06/27 02:26:11;;;;;;;6.45;1.90;;;;;;;;;;4998572;28;20507;-76
2023/06/27 02:28:57;;;;;;;3.40;1.70;;;;;;;;;;5012931;28;20512;-74
2023/06/27 02:31:42;;;;;;;3.78;2.00;;;;;;;;;;5028563;28;20029;-74
2023/06/27 02:34:28;;;;;;;5.30;2.10;;;;;;;;;;4998590;28;20483;-75
2023/06/27 02:37:13;;;;;;;3.13;1.40;;;;;;;;;;5027805;28;20064;-76
2023/06/27 02:39:59;;;;;;;2.88;1.67;;;;;;;;;;5023679;28;20368;-69
2023/06/27 02:42:44;;;;;;;5.53;1.67;;;;;;;;;;4996819;28;20094;-69
2023/06/27 02:45:29;;;;;;;3.47;1.60;;;;;;;;;;5018286;28;20048;-70
2023/06/27 02:48:14;;;;;;;4.25;1.42;;;;;;;;;;5001712;28;20033;-70
2023/06/27 02:50:59;;;;;;;5.68;1.77;;;;;;;;;;5016766;28;20036;-71
2023/06/27 02:53:45;;;;;;;2.97;1.90;;;;;;;;;;5027362;28;20033;-72
2023/06/27 02:56:30;;;;;;;4.32;2.15;;;;;;;;;;5011977;28;20071;-74
2023/06/27 02:59:15;;;;;;;4.40;1.80;;;;;;;;;;4999169;28;20053;-76
2023/06/27 03:02:00;;;;;;;4.03;1.70;;;;;;;;;;5009545;28;20212;-76
2023/06/27 03:04:47;;;;;;;4.63;1.88;;;;;;;;;;5018043;28;20037;-77
2023/06/27 03:07:32;;;;;;;6.70;1.80;;;;;;;;;;5017977;28;20038;-75
2023/06/27 03:10:18;;;;;;;5.13;1.92;;;;;;;;;;5004404;28;20065;-75
2023/06/27 03:13:03;;;;;;;3.55;1.60;;;;;;;;;;5017677;28;20101;-77
2023/06/27 03:15:48;;;;;;;4.97;2.00;;;;;;;;;;5029858;28;20128;-75
2023/06/27 03:18:33;;;;;;;3.97;1.90;;;;;;;;;;5017356;28;20033;-73
2023/06/27 03:21:19;;;;;;;6.00;1.70;;;;;;;;;;5024553;28;20029;-73
2023/06/27 03:24:05;;;;;;;5.38;2.05;;;;;;;;;;5029223;28;20029;-74
2023/06/27 03:26:50;;;;;;;4.72;1.75;;;;;;;;;;5019686;28;20409;-73
2023/06/27 03:29:35;;;;;;;5.00;1.95;;;;;;;;;;5037828;28;20042;-72
2023/06/27 03:32:20;;;;;;;5.82;1.85;;;;;;;;;;5017255;28;20496;-74
2023/06/27 03:35:06;;;;;;;3.78;1.60;;;;;;;;;;5022075;28;20047;-72
2023/06/27 03:37:51;;;;;;;6.40;2.28;;;;;;;;;;5003179;28;20086;-73
2023/06/27 03:40:36;;;;;;;6.05;1.70;;;;;;;;;;5034101;28;20041;-72
2023/06/27 03:43:23;;;;;;;4.93;1.75;;;;;;;;;;5025726;28;20029;-72
2023/06/27 03:46:12;;;;;;;6.28;2.05;;;;;;;;;;5012293;28;20041;-72
2023/06/27 03:48:58;;;;;;;4.30;1.88;;;;;;;;;;5015978;28;20033;-72
2023/06/27 03:51:44;;;;;;;9.13;2.30;;;;;;;;;;5030689;28;20049;-76
2023/06/27 03:54:29;;;;;;;4.80;1.70;;;;;;;;;;5030456;28;20030;-75
2023/06/27 03:57:14;;;;;;;7.80;2.33;;;;;;;;;;5030698;28;20407;-74
2023/06/27 03:59:59;;;;;;;5.15;2.00;;;;;;;;;;5023170;28;20107;-73
2023/06/27 04:02:45;;;;;;;5.45;1.50;;;;;;;;;;5010303;28;20171;-74
2023/06/27 04:05:30;;;;;;;7.18;2.03;;;;;;;;;;5035452;28;20037;-75
2023/06/27 04:08:15;;;;;;;2.85;1.52;;;;;;;;;;5027586;28;20057;-73
2023/06/27 04:11:00;;;;;;;2.33;1.50;;;;;;;;;;5023804;28;20120;-68
2023/06/27 04:13:45;;;;;;;3.80;1.73;;;;;;;;;;5017773;28;20044;-74
2023/06/27 04:16:31;;;;;;;4.50;1.63;;;;;;;;;;5032038;28;20509;-75
2023/06/27 04:19:16;;;;;;;6.00;1.67;;;;;;;;;;5026333;28;20033;-74
2023/06/27 04:22:02;;;;;;;5.47;2.15;;;;;;;;;;5017640;28;20071;-75
2023/06/27 04:24:47;;;;;;;6.07;2.00;;;;;;;;;;5022401;28;20065;-75
2023/06/27 04:27:33;;;;;;;3.85;1.70;;;;;;;;;;5015760;28;20475;-74
2023/06/27 04:30:18;;;;;;;4.22;1.80;;;;;;;;;;5015507;28;20041;-74
2023/06/27 04:33:03;;;;;;;4.05;1.50;;;;;;;;;;5016194;28;20037;-75
2023/06/27 04:35:48;;;;;;;4.38;1.83;;;;;;;;;;5014945;28;20025;-75
2023/06/27 04:38:40;;;;;;;5.65;2.03;;;;;;;;;;5026007;28;20523;-74
2023/06/27 04:41:29;;;;;;;4.45;1.85;;;;;;;;;;5015838;28;20427;-75
2023/06/27 04:44:14;;;;;;;3.40;1.95;;;;;;;;;;5015033;28;20361;-74
2023/06/27 04:46:59;;;;;;;4.55;2.30;;;;;;;;;;5000023;28;20060;-74
2023/06/27 04:49:44;;;;;;;4.68;1.90;;;;;;;;;;5011380;28;20068;-77
2023/06/27 04:52:29;;;;;;;2.90;1.58;;;;;;;;;;5000751;28;20075;-76
2023/06/27 04:55:15;;;;;;;8.25;2.38;;;;;;;;;;4999498;28;20092;-75
2023/06/27 04:58:01;;;;;;;5.47;1.63;;;;;;;;;;5014454;28;20037;-75
2023/06/27 05:00:47;;;;;;;3.42;1.65;;;;;;;;;;5015866;28;20049;-76
2023/06/27 05:03:32;;;;;;;4.07;1.65;;;;;;;;;;5011521;28;20030;-74
2023/06/27 05:06:17;;;;;;;3.50;1.45;;;;;;;;;;5020111;28;20034;-70
2023/06/27 05:09:03;;;;;;;5.57;2.03;;;;;;;;;;5024623;28;20021;-75
2023/06/27 05:11:48;;;;;;;4.97;1.88;;;;;;;;;;5017212;28;20079;-63
2023/06/27 05:14:34;;;;;;;4.55;1.90;;;;;;;;;;5014080;28;20124;-61
2023/06/27 05:17:19;;;;;;;7.63;2.00;;;;;;;;;;5035550;28;20112;-60
2023/06/27 05:20:05;;;;;;;5.32;1.80;;;;;;;;;;5039466;28;20118;-62
2023/06/27 05:22:50;;;;;;;4.72;1.83;;;;;;;;;;5031691;28;20615;-67
2023/06/27 05:25:36;;;;;;;5.93;1.92;;;;;;;;;;5015207;28;20021;-68
2023/06/27 05:28:21;;;;;;;3.45;2.28;;;;;;;;;;5016344;28;20022;-72
2023/06/27 05:31:06;;;;;;;5.97;2.00;;;;;;;;;;5020347;28;20455;-69
2023/06/27 05:33:51;;;;;;;5.13;2.03;;;;;;;;;;5035519;28;20041;-72
2023/06/27 05:36:37;;;;;;;4.40;1.80;;;;;;;;;;5012087;28;20167;-72
2023/06/27 05:39:22;;;;;;;5.45;2.20;;;;;;;;;;5030256;28;20041;-70
2023/06/27 05:42:07;;;;;;;5.80;1.95;;;;;;;;;;5013755;28;20033;-68
2023/06/27 05:44:52;;;;;;;6.13;2.15;;;;;;;;;;5015324;28;20517;-68
2023/06/27 05:47:38;;;;;;;5.85;1.98;;;;;;;;;;5029394;28;20075;-68
2023/06/27 05:50:23;;;;;;;5.32;2.20;;;;;;;;;;5027148;28;20025;-68
2023/06/27 05:53:08;;;;;;;6.65;2.03;;;;;;;;;;5014315;28;20033;-69
2023/06/27 05:55:53;;;;;;;5.85;2.05;;;;;;;;;;5025470;28;20029;-67
2023/06/27 05:58:38;;;;;;;4.32;1.80;;;;;;;;;;4998929;28;20029;-66
2023/06/27 06:01:24;;;;;;;6.88;1.92;;;;;;;;;;5022345;28;20048;-61
2023/06/27 06:04:09;;;;;;;5.68;1.70;;;;;;;;;;5027655;28;20028;-66
2023/06/27 06:06:55;;;;;;;7.55;1.70;;;;;;;;;;5014866;28;20129;-67
2023/06/27 06:09:40;;;;;;;4.47;1.80;;;;;;;;;;5016550;28;20365;-66
2023/06/27 06:12:25;;;;;;;7.18;2.10;;;;;;;;;;5021769;28;20052;-69
2023/06/27 06:15:10;;;;;;;4.95;1.90;;;;;;;;;;5012899;28;20041;-72
2023/06/27 06:17:55;;;;;;;12.88;2.33;;;;;;;;;;5025641;28;20033;-74
2023/06/27 06:20:41;;;;;;;5.15;1.67;;;;;;;;;;5012872;28;20029;-69
2023/06/27 06:23:26;;;;;;;5.82;2.03;;;;;;;;;;5012739;28;20045;-69
2023/06/27 06:26:11;;;;;;;7.20;2.92;;;;;;;;;;5027566;28;20041;-72
2023/06/27 06:28:56;;;;;;;5.13;1.83;;;;;;;;;;5027121;28;20025;-71
2023/06/27 06:31:42;;;;;;;5.70;1.83;;;;;;;;;;5025967;28;20048;-70
2023/06/27 06:34:27;;;;;;;10.80;1.77;;;;;;;;;;5004289;28;20033;-71
2023/06/27 06:37:13;;;;;;;3.63;1.85;;;;;;;;;;5015509;28;20555;-71
2023/06/27 06:39:58;;;;;;;6.78;1.95;;;;;;;;;;5020512;28;20033;-68
2023/06/27 06:42:43;;;;;;;4.38;2.17;;;;;;;;;;5033765;28;20025;-68
2023/06/27 06:45:28;;;;;;;5.25;2.08;;;;;;;;;;5034480;28;20380;-69
2023/06/27 06:48:14;;;;;;;3.70;2.00;;;;;;;;;;5020533;28;20037;-69
2023/06/27 06:50:59;;;;;;;3.95;1.85;;;;;;;;;;5020377;28;20163;-69
2023/06/27 06:53:44;;;;;;;4.78;1.85;;;;;;;;;;5032900;28;20487;-70
2023/06/27 06:56:29;;;;;;;2.67;1.73;;;;;;;;;;5036705;28;20045;-72
2023/06/27 06:59:15;;;;;;;5.22;2.13;;;;;;;;;;5020432;28;20065;-71
2023/06/27 07:02:00;;;;;;;5.63;2.13;;;;;;;;;;5033389;28;20029;-71
2023/06/27 07:04:45;;;;;;;2.97;1.40;;;;;;;;;;5034211;28;20059;-70
2023/06/27 07:07:30;;;;;;;5.00;1.98;;;;;;;;;;5034022;28;20049;-74
2023/06/27 07:10:16;;;;;;;3.15;1.50;;;;;;;;;;5033862;28;20597;-70
2023/06/27 07:13:01;;;;;;;2.92;1.63;;;;;;;;;;5019244;28;20095;-72
2023/06/27 07:15:46;;;;;;;4.43;1.70;;;;;;;;;;5020315;28;20045;-70
2023/06/27 07:18:31;;;;;;;4.60;1.70;;;;;;;;;;5007344;28;20033;-69
2023/06/27 07:21:17;;;;;;;3.80;1.50;;;;;;;;;;5015950;28;20033;-69
2023/06/27 07:24:02;;;;;;;4.65;1.42;;;;;;;;;;5000315;28;20088;-69
2023/06/27 07:26:47;;;;;;;5.28;1.67;;;;;;;;;;5018562;28;20044;-70
2023/06/27 07:29:33;;;;;;;5.75;2.30;;;;;;;;;;5018948;28;20120;-71
2023/06/27 07:32:18;;;;;;;4.45;2.03;;;;;;;;;;5017020;28;20040;-72
2023/06/27 07:35:06;;;;;;;3.50;1.70;;;;;;;;;;5033361;28;20091;-75
2023/06/27 07:37:51;;;;;;;3.35;1.85;;;;;;;;;;5033646;28;20376;-75
2023/06/27 07:40:37;;;;;;;3.88;1.70;;;;;;;;;;5019977;28;20079;-75
2023/06/27 07:43:22;;;;;;;4.75;1.95;;;;;;;;;;5033252;28;20025;-74
2023/06/27 07:46:07;;;;;;;3.83;1.80;;;;;;;;;;5006595;28;20033;-73
2023/06/27 07:48:52;;;;;;;8.80;2.08;;;;;;;;;;5030785;28;20029;-75
2023/06/27 07:51:37;;;;;;;4.70;2.00;;;;;;;;;;5016187;28;20057;-75
2023/06/27 07:54:26;;;;;;;3.55;1.55;;;;;;;;;;4999378;28;20036;-71
2023/06/27 07:57:11;;;;;;;6.40;2.13;;;;;;;;;;5016562;28;20131;-72
2023/06/27 07:59:56;;;;;;;5.18;1.65;;;;;;;;;;5018202;28;20071;-69
2023/06/27 08:02:41;;;;;;;3.47;1.80;;;;;;;;;;5011390;28;20088;-68
2023/06/27 08:05:28;;;;;;;3.10;1.67;;;;;;;;;;5029349;28;20435;-68
2023/06/27 08:08:14;;;;;;;5.18;2.65;;;;;;;;;;5006905;28;20468;-73
2023/06/27 08:10:59;;;;;;;13.25;1.85;;;;;;;;;;5015579;28;20037;-73
2023/06/27 08:13:44;;;;;;;4.95;2.10;;;;;;;;;;5015637;28;20025;-74
2023/06/27 08:16:30;;;;;;;7.25;1.90;;;;;;;;;;5030227;28;20025;-73
2023/06/27 08:19:15;;;;;;;6.88;1.88;;;;;;;;;;4996639;28;20033;-72
2023/06/27 08:22:00;;;;;;;5.18;1.75;;;;;;;;;;5003209;28;20322;-75
2023/06/27 08:24:45;;;;;;;4.25;1.90;;;;;;;;;;5016869;28;20037;-75
2023/06/27 08:27:30;;;;;;;5.18;1.75;;;;;;;;;;5011726;28;20033;-72
2023/06/27 08:30:16;;;;;;;6.38;1.70;;;;;;;;;;5028511;28;20407;-68
2023/06/27 08:33:01;;;;;;;5.80;2.00;;;;;;;;;;5015765;28;20039;-68
2023/06/27 08:35:46;;;;;;;4.43;2.10;;;;;;;;;;5015659;28;20040;-67
2023/06/27 08:38:31;;;;;;;7.07;1.90;;;;;;;;;;5015680;28;20507;-70
2023/06/27 08:41:17;;;;;;;4.95;1.70;;;;;;;;;;5004521;28;20029;-68
2023/06/27 08:44:02;;;;;;;4.70;1.85;;;;;;;;;;5013979;28;20030;-72
2023/06/27 08:46:48;;;;;;;3.75;1.63;;;;;;;;;;5016288;28;20029;-73
2023/06/27 08:49:33;;;;;;;4.20;1.90;;;;;;;;;;5014229;28;20436;-69
2023/06/27 08:52:19;;;;;;;5.97;2.00;;;;;;;;;;5015026;28;20053;-70
2023/06/27 08:55:06;;;;;;;7.50;2.55;;;;;;;;;;5028938;28;20041;-69
2023/06/27 08:57:53;;;;;;;3.88;1.88;;;;;;;;;;5014432;28;20037;-71
2023/06/27 09:00:38;;;;;;;4.45;1.90;;;;;;;;;;5015519;28;20037;-69
2023/06/27 09:03:24;;;;;;;3.97;2.00;;;;;;;;;;5015280;28;20400;-74
2023/06/27 09:06:11;;;;;;;3.47;1.70;;;;;;;;;;5015701;28;20043;-71
2023/06/27 09:08:57;;;;;;;4.30;1.92;;;;;;;;;;5029346;28;20029;-68
2023/06/27 09:11:42;;;;;;;6.80;2.20;;;;;;;;;;5014932;28;20033;-70
2023/06/27 09:14:28;;;;;;;5.35;2.13;;;;;;;;;;5028764;28;20037;-69
2023/06/27 09:17:13;;;;;;;7.03;2.03;;;;;;;;;;5029379;28;20033;-70
2023/06/27 09:19:58;;;;;;;5.68;1.83;;;;;;;;;;5029069;28;20040;-69
2023/06/27 09:22:43;;;;;;;7.22;2.40;;;;;;;;;;5014441;28;20110;-68
2023/06/27 09:25:29;;;;;;;8.23;1.90;;;;;;;;;;5016949;28;20029;-74
2023/06/27 09:28:16;;;;;;;6.65;2.00;;;;;;;;;;5012992;28;20080;-73
2023/06/27 09:31:01;;;;;;;5.88;2.58;;;;;;;;;;5008178;28;20436;-75
2023/06/27 09:33:48;;;;;;;5.90;1.92;;;;;;;;;;5005848;28;20440;-74
2023/06/27 09:36:34;;;;;;;5.65;1.85;;;;;;;;;;5015099;28;20577;-74
2023/06/27 09:39:25;;;;;;;5.38;1.90;;;;;;;;;;5014764;28;20037;-75
2023/06/27 09:42:11;;;;;;;4.35;1.63;;;;;;;;;;5028420;28;20105;-70
2023/06/27 09:45:12;;;;;;;7.32;2.15;;;;;;;;;;5007902;28;20168;-70
2023/06/27 09:48:00;;;;;;;9.05;2.50;;;;;;;;;;5014559;28;20120;-70
2023/06/27 09:50:47;;;;;;;5.30;1.85;;;;;;;;;;5028604;28;20044;-71
2023/06/27 09:53:33;;;;;;;5.47;1.98;;;;;;;;;;5009887;28;20515;-72
2023/06/27 09:56:27;;;;;;;5.53;1.95;;;;;;;;;;5014525;28;20045;-73
2023/06/27 09:59:15;;;;;;;3.05;1.85;;;;;;;;;;5009479;28;20033;-69
2023/06/27 10:02:01;;;;;;;9.77;2.27;;;;;;;;;;5027478;28;20052;-73
2023/06/27 10:04:46;;;;;;;5.28;1.92;;;;;;;;;;5028127;28;20466;-70
2023/06/27 10:07:31;;;;;;;6.82;2.30;;;;;;;;;;5014290;28;20033;-73
2023/06/27 10:10:19;;;;;;;6.53;2.20;;;;;;;;;;5014728;28;20491;-72
2023/06/27 10:13:04;;;;;;;4.13;1.50;;;;;;;;;;4999730;28;20083;-73
2023/06/27 10:15:50;;;;;;;6.07;1.98;;;;;;;;;;5028171;28;20040;-71
2023/06/27 10:18:35;;;;;;;6.05;2.17;;;;;;;;;;5014229;28;20025;-70
2023/06/27 10:21:20;;;;;;;6.28;1.90;;;;;;;;;;5014358;28;20052;-72
2023/06/27 10:24:06;;;;;;;7.43;2.00;;;;;;;;;;5027738;28;20321;-70
2023/06/27 10:26:55;;;;;;;5.85;2.33;;;;;;;;;;5028011;28;20098;-71
2023/06/27 10:29:41;;;;;;;5.40;1.90;;;;;;;;;;5013267;28;20033;-70
2023/06/27 10:32:36;;;;;;;4.40;2.17;;;;;;;;;;5013525;28;20267;-69
2023/06/27 10:35:26;;;;;;;4.57;2.55;;;;;;;;;;5013986;28;20494;-70
2023/06/27 10:38:14;;;;;;;3.08;1.88;;;;;;;;;;5014366;28;20033;-74
2023/06/27 10:41:04;;;;;;;3.53;2.10;;;;;;;;;;5026463;28;20580;-72
2023/06/27 10:43:51;;;;;;;5.70;1.90;;;;;;;;;;5013127;28;20087;-74
2023/06/27 10:46:36;;;;;;;5.30;1.88;;;;;;;;;;5027525;28;20044;-62
2023/06/27 10:49:33;;;;;;;4.95;1.83;;;;;;;;;;5027442;28;20060;-64
2023/06/27 10:52:19;;;;;;;5.38;2.33;;;;;;;;;;5013868;28;20033;-62
2023/06/27 10:55:15;;;;;;;5.78;2.25;;;;;;;;;;5027477;28;20087;-63
2023/06/27 10:58:06;;;;;;;3.20;2.00;;;;;;;;;;5013787;28;20084;-64
2023/06/27 11:00:52;;;;;;;7.88;2.10;;;;;;;;;;5009222;28;20029;-65
2023/06/27 11:03:42;;;;;;;5.30;2.00;;;;;;;;;;5013300;28;20041;-62
2023/06/27 11:06:47;;;;;;;3.85;1.88;;;;;;;;;;5017417;28;20025;-63
2023/06/27 11:09:33;;;;;;;3.97;1.58;;;;;;;;;;5013686;28;20057;-64
2023/06/27 11:12:19;;;;;;;5.78;1.92;;;;;;;;;;5026715;28;20030;-65
2023/06/27 11:15:05;;;;;;;5.63;1.88;;;;;;;;;;5008460;28;20112;-63
2023/06/27 11:17:50;;;;;;;5.43;2.67;;;;;;;;;;5027057;28;20036;-64
2023/06/27 11:20:35;;;;;;;7.13;2.03;;;;;;;;;;5013038;28;20552;-66
2023/06/27 11:23:21;;;;;;;5.10;1.95;;;;;;;;;;5013661;28;20095;-68
2023/06/27 11:26:07;;;;;;;4.80;1.88;;;;;;;;;;5017551;28;20030;-63
2023/06/27 11:28:52;;;;;;;4.65;2.20;;;;;;;;;;5028287;28;20056;-65
2023/06/27 11:31:37;;;;;;;3.22;1.70;;;;;;;;;;5011230;28;20061;-65
2023/06/27 11:34:24;;;;;;;8.27;2.08;;;;;;;;;;5016705;28;20029;-70
2023/06/27 11:37:10;;;;;;;4.80;2.05;;;;;;;;;;5017398;28;20069;-72
2023/06/27 11:40:06;;;;;;;7.13;2.20;;;;;;;;;;5016850;28;20433;-70
2023/06/27 11:43:02;;;;;;;7.05;2.05;;;;;;;;;;5016363;28;20039;-70
2023/06/27 11:45:51;;;;;;;4.70;1.90;;;;;;;;;;5016340;28;20101;-67
2023/06/27 11:48:41;;;;;;;3.22;1.98;;;;;;;;;;5011992;28;20048;-61
2023/06/27 11:51:37;;;;;;;8.07;2.50;;;;;;;;;;5017947;28;20068;-62
2023/06/27 11:54:22;;;;;;;3.83;1.90;;;;;;;;;;5029719;28;20491;-69
2023/06/27 11:57:07;;;;;;;3.95;1.88;;;;;;;;;;5016743;28;20045;-66
2023/06/27 11:59:52;;;;;;;2.78;1.88;;;;;;;;;;5009816;28;20033;-65
2023/06/27 12:02:37;;;;;;;5.30;2.10;;;;;;;;;;5030395;28;20025;-63
2023/06/27 12:05:24;;;;;;;3.22;2.45;;;;;;;;;;5026609;28;20029;-64
2023/06/27 12:08:09;;;;;;;7.80;2.33;;;;;;;;;;5015624;28;20033;-62
2023/06/27 12:11:00;;;;;;;7.78;2.70;;;;;;;;;;5029555;28;20029;-67
2023/06/27 12:13:46;;;;;;;9.32;1.98;;;;;;;;;;5014835;28;20025;-65
2023/06/27 12:16:35;;;;;;;4.97;1.92;;;;;;;;;;5015817;28;20033;-78
2023/06/27 12:19:21;;;;;;;3.30;1.98;;;;;;;;;;5029477;28;20119;-74
2023/06/27 12:22:06;;;;;;;5.70;2.17;;;;;;;;;;5004718;28;20121;-76
2023/06/27 12:24:51;;;;;;;5.03;1.98;;;;;;;;;;5010255;28;20045;-73
2023/06/27 12:27:36;;;;;;;5.75;2.22;;;;;;;;;;5017393;28;20063;-71
2023/06/27 12:30:21;;;;;;;6.82;2.38;;;;;;;;;;5008483;28;20491;-70
2023/06/27 12:33:07;;;;;;;5.60;1.75;;;;;;;;;;5002024;28;20040;-70
2023/06/27 12:35:52;;;;;;;7.25;1.98;;;;;;;;;;5015338;28;20030;-71
2023/06/27 12:38:37;;;;;;;9.73;2.10;;;;;;;;;;5016069;28;20029;-71
2023/06/27 12:41:24;;;;;;;8.60;2.00;;;;;;;;;;5005109;28;20052;-73
2023/06/27 12:44:09;;;;;;;3.58;1.73;;;;;;;;;;5014705;28;20033;-72
2023/06/27 12:46:54;;;;;;;8.25;2.55;;;;;;;;;;5029932;28;20040;-75
2023/06/27 12:49:40;;;;;;;4.28;1.90;;;;;;;;;;5015089;28;20039;-70
2023/06/27 12:52:25;;;;;;;4.45;1.90;;;;;;;;;;5028473;28;20038;-71
2023/06/27 12:55:10;;;;;;;5.18;2.45;;;;;;;;;;5015497;28;20677;-70
2023/06/27 12:57:57;;;;;;;7.38;2.33;;;;;;;;;;5028860;28;20075;-70
2023/06/27 13:00:43;;;;;;;4.20;1.90;;;;;;;;;;5015813;28;20048;-69
2023/06/27 13:03:28;;;;;;;6.05;2.25;;;;;;;;;;5005874;28;20719;-68
2023/06/27 13:06:14;;;;;;;5.70;2.08;;;;;;;;;;5015456;28;20021;-74
2023/06/27 13:08:59;;;;;;;4.57;2.30;;;;;;;;;;5015395;28;20040;-75
2023/06/27 13:11:44;;;;;;;4.47;2.15;;;;;;;;;;5014784;28;20425;-72
2023/06/27 13:14:29;;;;;;;6.10;2.67;;;;;;;;;;5014058;28;20028;-74
2023/06/27 13:17:15;;;;;;;3.15;1.80;;;;;;;;;;5029033;28;20037;-74
2023/06/27 13:20:00;;;;;;;5.20;2.30;;;;;;;;;;5014748;28;20376;-75
2023/06/27 13:22:48;;;;;;;9.48;2.00;;;;;;;;;;5013511;28;20455;-71
2023/06/27 13:25:33;;;;;;;4.75;1.83;;;;;;;;;;4993828;28;20057;-71
2023/06/27 13:28:19;;;;;;;4.68;2.20;;;;;;;;;;5001718;28;20033;-68
2023/06/27 13:31:05;;;;;;;7.38;2.10;;;;;;;;;;5009310;28;20037;-69
2023/06/27 13:33:51;;;;;;;4.80;2.03;;;;;;;;;;5012224;28;20464;-69
2023/06/27 13:36:37;;;;;;;7.32;2.05;;;;;;;;;;5015265;28;20029;-71
2023/06/27 13:39:22;;;;;;;4.35;2.10;;;;;;;;;;4995844;28;20522;-71
2023/06/27 13:42:07;;;;;;;6.47;2.20;;;;;;;;;;5028074;28;20087;-72
2023/06/27 13:44:52;;;;;;;3.65;1.83;;;;;;;;;;5014378;28;20060;-74
2023/06/27 13:47:38;;;;;;;9.43;2.20;;;;;;;;;;5026397;28;20430;-74
2023/06/27 13:50:23;;;;;;;3.65;2.00;;;;;;;;;;5027960;28;20038;-72
2023/06/27 13:53:08;;;;;;;5.13;2.38;;;;;;;;;;4995156;28;20233;-72
2023/06/27 13:55:53;;;;;;;3.75;1.98;;;;;;;;;;5022088;28;20366;-73
2023/06/27 13:58:39;;;;;;;4.75;2.10;;;;;;;;;;5012812;28;20041;-72
2023/06/27 14:01:24;;;;;;;4.10;1.92;;;;;;;;;;5012992;28;20496;-71
2023/06/27 14:04:10;;;;;;;6.35;2.35;;;;;;;;;;5014791;28;20476;-70
2023/06/27 14:06:56;;;;;;;4.50;2.15;;;;;;;;;;5014838;28;20120;-70
2023/06/27 14:09:41;;;;;;;4.40;2.35;;;;;;;;;;5014120;28;20029;-70
2023/06/27 14:12:26;;;;;;;5.50;2.30;;;;;;;;;;5019872;28;20032;-70
2023/06/27 14:15:11;;;;;;;5.30;2.10;;;;;;;;;;5002041;28;20037;-72
2023/06/27 14:17:57;;;;;;;8.93;1.95;;;;;;;;;;5027669;28;20112;-70
2023/06/27 14:20:42;;;;;;;3.00;1.80;;;;;;;;;;5014763;28;20073;-70
2023/06/27 14:23:27;;;;;;;3.53;1.90;;;;;;;;;;5014347;28;20028;-70
2023/06/27 14:26:12;;;;;;;3.78;2.10;;;;;;;;;;5024782;28;20029;-72
2023/06/27 14:28:58;;;;;;;7.72;2.08;;;;;;;;;;5006758;28;20095;-70
2023/06/27 14:31:43;;;;;;;5.93;2.05;;;;;;;;;;5011806;28;20108;-69
2023/06/27 14:34:28;;;;;;;4.45;2.20;;;;;;;;;;5024659;28;20467;-71
2023/06/27 14:37:13;;;;;;;5.35;1.95;;;;;;;;;;5008337;28;20029;-72
2023/06/27 14:39:59;;;;;;;5.22;2.20;;;;;;;;;;5013907;28;20100;-75
2023/06/27 14:42:44;;;;;;;4.35;2.58;;;;;;;;;;5016327;28;20037;-79
2023/06/27 14:45:29;;;;;;;5.75;2.15;;;;;;;;;;5019328;28;20033;-75
2023/06/27 14:48:14;;;;;;;3.45;1.92;;;;;;;;;;5014771;28;20025;-75
2023/06/27 14:51:00;;;;;;;5.60;2.10;;;;;;;;;;5032734;28;20038;-76
2023/06/27 14:53:46;;;;;;;7.78;2.35;;;;;;;;;;5006881;28;20036;-70
2023/06/27 14:56:31;;;;;;;5.40;1.88;;;;;;;;;;5000032;28;20380;-71
2023/06/27 14:59:16;;;;;;;4.60;1.85;;;;;;;;;;5003131;28;20037;-70
2023/06/27 15:02:02;;;;;;;2.58;1.70;;;;;;;;;;5028697;28;20040;-72
2023/06/27 15:04:47;;;;;;;3.67;1.80;;;;;;;;;;5015402;28;20032;-71
2023/06/27 15:07:32;;;;;;;3.13;1.70;;;;;;;;;;5016713;28;20392;-71
2023/06/27 15:10:17;;;;;;;5.05;1.92;;;;;;;;;;5031514;28;20033;-70
2023/06/27 15:13:03;;;;;;;6.45;1.90;;;;;;;;;;5020797;28;20048;-71
2023/06/27 15:15:49;;;;;;;8.13;2.03;;;;;;;;;;4993911;28;20034;-69
2023/06/27 15:18:34;;;;;;;4.57;1.70;;;;;;;;;;5015830;28;20018;-71
2023/06/27 15:21:20;;;;;;;5.13;2.15;;;;;;;;;;5016380;28;20083;-71
2023/06/27 15:24:05;;;;;;;3.13;1.75;;;;;;;;;;5029119;28;20083;-72
2023/06/27 15:26:50;;;;;;;4.78;2.00;;;;;;;;;;5028976;28;20034;-72
2023/06/27 15:29:36;;;;;;;4.43;1.98;;;;;;;;;;5006652;28;20550;-72
2023/06/27 15:32:21;;;;;;;3.13;1.85;;;;;;;;;;5016884;28;20431;-75
2023/06/27 15:35:07;;;;;;;6.70;2.28;;;;;;;;;;5011410;28;20125;-71
2023/06/27 15:38:10;;;;;;;3.10;1.77;;;;;;;;;;5098567;27;20501;-70
2023/06/27 15:40:55;;;;;;;3.55;1.80;;;;;;;;;;5085261;28;20038;-71
2023/06/27 15:43:42;;;;;;;5.82;2.38;;;;;;;;;;5084866;28;20548;-71
2023/06/27 15:46:27;;;;;;;3.88;1.98;;;;;;;;;;5083225;28;20028;-71
2023/06/27 15:49:12;;;;;;;3.90;1.70;;;;;;;;;;5080110;28;20123;-72
2023/06/27 15:51:58;;;;;;;4.72;2.20;;;;;;;;;;5080705;28;20379;-71
2023/06/27 15:54:44;;;;;;;3.45;1.90;;;;;;;;;;5059996;28;20031;-72
2023/06/27 15:57:31;;;;;;;5.10;2.20;;;;;;;;;;5055083;28;20186;-71
2023/06/27 16:00:16;;;;;;;4.10;2.20;;;;;;;;;;5051924;28;20087;-72
2023/06/27 16:03:01;;;;;;;6.63;1.92;;;;;;;;;;5078276;28;20108;-71
2023/06/27 16:05:47;;;;;;;3.17;2.00;;;;;;;;;;5081864;28;20032;-71
2023/06/27 16:08:32;;;;;;;3.08;1.98;;;;;;;;;;5061228;28;20028;-74
2023/06/27 16:11:17;;;;;;;6.35;2.00;;;;;;;;;;5076366;28;20052;-68
2023/06/27 16:14:02;;;;;;;6.03;2.08;;;;;;;;;;5064614;28;20306;-68
2023/06/27 16:16:48;;;;;;;3.42;2.00;;;;;;;;;;5078621;28;20024;-69
2023/06/27 16:19:33;;;;;;;5.53;1.90;;;;;;;;;;5078595;28;21617;-72
2023/06/27 16:22:19;;;;;;;4.50;1.60;;;;;;;;;;5076840;28;20199;-70
2023/06/27 16:25:05;;;;;;;4.90;1.80;;;;;;;;;;5060328;28;20020;-72
2023/06/27 16:27:50;;;;;;;6.93;1.98;;;;;;;;;;5077361;28;20379;-71
2023/06/27 16:30:37;;;;;;;4.57;2.05;;;;;;;;;;5054647;28;20059;-70
2023/06/27 16:33:24;;;;;;;8.73;3.00;;;;;;;;;;5074630;28;20059;-71
2023/06/27 16:36:09;;;;;;;3.63;2.13;;;;;;;;;;5052414;28;20095;-72